sensor_id;sensor_type;location;lat;lon;timestamp;temperature;humidity
25440;DHT22;13365;52.208;5.488;2022-10-23T00:01:59;18.80;93.40
25440;DHT22;13365;52.208;5.488;2022-10-23T00:04:26;18.80;93.30
25440;DHT22;13365;52.208;5.488;2022-10-23T00:06:52;18.70;93.20
25440;DHT22;13365;52.208;5.488;2022-10-23T00:09:21;18.60;93.20
25440;DHT22;13365;52.208;5.488;2022-10-23T00:11:48;18.70;93.10
25440;DHT22;13365;52.208;5.488;2022-10-23T00:14:16;18.60;93.10
25440;DHT22;13365;52.208;5.488;2022-10-23T00:16:43;18.60;93.20
25440;DHT22;13365;52.208;5.488;2022-10-23T00:19:09;18.60;93.20
25440;DHT22;13365;52.208;5.488;2022-10-23T00:21:35;18.60;93.30
25440;DHT22;13365;52.208;5.488;2022-10-23T00:24:00;18.50;93.20
25440;DHT22;13365;52.208;5.488;2022-10-23T00:26:26;18.60;93.40
25440;DHT22;13365;52.208;5.488;2022-10-23T00:28:53;18.50;93.40
25440;DHT22;13365;52.208;5.488;2022-10-23T00:31:20;18.50;93.50
25440;DHT22;13365;52.208;5.488;2022-10-23T00:33:46;18.50;93.50
25440;DHT22;13365;52.208;5.488;2022-10-23T00:36:14;18.50;94.00
25440;DHT22;13365;52.208;5.488;2022-10-23T00:38:39;18.50;93.80
25440;DHT22;13365;52.208;5.488;2022-10-23T00:41:07;18.50;93.70
25440;DHT22;13365;52.208;5.488;2022-10-23T00:43:34;18.40;93.70
25440;DHT22;13365;52.208;5.488;2022-10-23T00:46:17;18.30;93.60
25440;DHT22;13365;52.208;5.488;2022-10-23T00:48:43;18.50;93.50
25440;DHT22;13365;52.208;5.488;2022-10-23T00:51:08;18.40;93.40
25440;DHT22;13365;52.208;5.488;2022-10-23T00:53:34;18.30;93.40
25440;DHT22;13365;52.208;5.488;2022-10-23T00:55:59;18.30;93.40
25440;DHT22;13365;52.208;5.488;2022-10-23T00:58:28;18.30;93.30
25440;DHT22;13365;52.208;5.488;2022-10-23T01:00:55;18.30;93.30
25440;DHT22;13365;52.208;5.488;2022-10-23T01:03:25;18.30;93.20
25440;DHT22;13365;52.208;5.488;2022-10-23T01:09:05;18.30;93.30
25440;DHT22;13365;52.208;5.488;2022-10-23T01:11:57;18.30;93.40
25440;DHT22;13365;52.208;5.488;2022-10-23T01:14:34;18.20;93.50
25440;DHT22;13365;52.208;5.488;2022-10-23T01:17:10;18.30;93.60
25440;DHT22;13365;52.208;5.488;2022-10-23T01:25:25;18.30;93.60
25440;DHT22;13365;52.208;5.488;2022-10-23T01:28:02;18.30;93.60
25440;DHT22;13365;52.208;5.488;2022-10-23T01:30:29;18.30;93.70
25440;DHT22;13365;52.208;5.488;2022-10-23T01:33:05;18.20;93.60
25440;DHT22;13365;52.208;5.488;2022-10-23T01:35:42;18.30;93.60
25440;DHT22;13365;52.208;5.488;2022-10-23T01:41:01;18.30;93.60
25440;DHT22;13365;52.208;5.488;2022-10-23T01:43:44;18.30;93.60
25440;DHT22;13365;52.208;5.488;2022-10-23T01:46:15;18.20;93.50
25440;DHT22;13365;52.208;5.488;2022-10-23T01:48:45;18.30;93.60
25440;DHT22;13365;52.208;5.488;2022-10-23T01:51:13;18.20;93.60
25440;DHT22;13365;52.208;5.488;2022-10-23T01:53:41;18.30;93.60
25440;DHT22;13365;52.208;5.488;2022-10-23T01:56:10;18.20;93.50
25440;DHT22;13365;52.208;5.488;2022-10-23T01:58:37;18.30;93.60
25440;DHT22;13365;52.208;5.488;2022-10-23T02:01:05;18.30;93.50
25440;DHT22;13365;52.208;5.488;2022-10-23T02:03:32;18.40;93.60
25440;DHT22;13365;52.208;5.488;2022-10-23T02:06:00;18.20;93.50
25440;DHT22;13365;52.208;5.488;2022-10-23T02:08:26;18.20;93.50
25440;DHT22;13365;52.208;5.488;2022-10-23T02:11:08;18.20;93.50
25440;DHT22;13365;52.208;5.488;2022-10-23T02:13:43;18.20;93.60
25440;DHT22;13365;52.208;5.488;2022-10-23T02:16:51;18.20;93.50
25440;DHT22;13365;52.208;5.488;2022-10-23T02:22:40;18.10;93.60
25440;DHT22;13365;52.208;5.488;2022-10-23T02:24:56;18.10;93.70
25440;DHT22;13365;52.208;5.488;2022-10-23T02:27:37;18.00;93.60
25440;DHT22;13365;52.208;5.488;2022-10-23T02:30:09;18.00;93.60
25440;DHT22;13365;52.208;5.488;2022-10-23T02:32:39;18.00;93.60
25440;DHT22;13365;52.208;5.488;2022-10-23T02:35:06;18.10;93.50
25440;DHT22;13365;52.208;5.488;2022-10-23T02:37:32;18.10;93.60
25440;DHT22;13365;52.208;5.488;2022-10-23T02:39:59;18.10;93.50
25440;DHT22;13365;52.208;5.488;2022-10-23T02:42:29;18.00;93.50
25440;DHT22;13365;52.208;5.488;2022-10-23T02:45:44;18.00;93.50
25440;DHT22;13365;52.208;5.488;2022-10-23T02:48:12;18.00;93.50
25440;DHT22;13365;52.208;5.488;2022-10-23T02:50:56;18.00;93.50
25440;DHT22;13365;52.208;5.488;2022-10-23T02:56:08;18.00;93.70
25440;DHT22;13365;52.208;5.488;2022-10-23T02:58:46;18.00;93.70
25440;DHT22;13365;52.208;5.488;2022-10-23T03:01:20;18.00;93.80
25440;DHT22;13365;52.208;5.488;2022-10-23T03:03:52;18.00;93.90
25440;DHT22;13365;52.208;5.488;2022-10-23T03:06:19;18.10;93.90
25440;DHT22;13365;52.208;5.488;2022-10-23T03:08:59;18.10;94.00
25440;DHT22;13365;52.208;5.488;2022-10-23T03:11:26;18.10;94.10
25440;DHT22;13365;52.208;5.488;2022-10-23T03:13:51;18.00;94.10
25440;DHT22;13365;52.208;5.488;2022-10-23T03:16:17;18.00;94.20
25440;DHT22;13365;52.208;5.488;2022-10-23T03:18:43;18.10;94.20
25440;DHT22;13365;52.208;5.488;2022-10-23T03:21:08;18.00;94.30
25440;DHT22;13365;52.208;5.488;2022-10-23T03:23:34;17.90;94.20
25440;DHT22;13365;52.208;5.488;2022-10-23T03:25:59;18.00;94.30
25440;DHT22;13365;52.208;5.488;2022-10-23T03:28:25;17.90;94.30
25440;DHT22;13365;52.208;5.488;2022-10-23T03:30:51;17.90;94.20
25440;DHT22;13365;52.208;5.488;2022-10-23T03:33:17;17.90;94.20
25440;DHT22;13365;52.208;5.488;2022-10-23T03:35:43;18.00;94.20
25440;DHT22;13365;52.208;5.488;2022-10-23T03:38:08;18.10;94.20
25440;DHT22;13365;52.208;5.488;2022-10-23T03:40:34;18.10;94.10
25440;DHT22;13365;52.208;5.488;2022-10-23T03:42:59;18.10;94.10
25440;DHT22;13365;52.208;5.488;2022-10-23T03:45:25;18.20;94.10
25440;DHT22;13365;52.208;5.488;2022-10-23T03:47:50;18.10;94.20
25440;DHT22;13365;52.208;5.488;2022-10-23T03:50:17;18.00;94.10
25440;DHT22;13365;52.208;5.488;2022-10-23T03:52:44;18.10;94.10
25440;DHT22;13365;52.208;5.488;2022-10-23T03:55:10;18.10;94.10
25440;DHT22;13365;52.208;5.488;2022-10-23T03:57:36;18.10;94.10
25440;DHT22;13365;52.208;5.488;2022-10-23T04:00:03;18.10;94.00
25440;DHT22;13365;52.208;5.488;2022-10-23T04:02:30;18.20;93.80
25440;DHT22;13365;52.208;5.488;2022-10-23T04:04:55;18.00;93.80
25440;DHT22;13365;52.208;5.488;2022-10-23T04:07:21;18.00;93.90
25440;DHT22;13365;52.208;5.488;2022-10-23T04:09:46;18.00;93.90
25440;DHT22;13365;52.208;5.488;2022-10-23T04:12:12;18.00;93.90
25440;DHT22;13365;52.208;5.488;2022-10-23T04:14:37;17.90;94.00
25440;DHT22;13365;52.208;5.488;2022-10-23T04:17:03;17.80;94.40
25440;DHT22;13365;52.208;5.488;2022-10-23T04:19:28;17.80;94.10
25440;DHT22;13365;52.208;5.488;2022-10-23T04:21:54;17.80;94.10
25440;DHT22;13365;52.208;5.488;2022-10-23T04:24:22;17.70;94.30
25440;DHT22;13365;52.208;5.488;2022-10-23T04:26:48;17.80;94.60
25440;DHT22;13365;52.208;5.488;2022-10-23T04:29:13;17.70;94.60
25440;DHT22;13365;52.208;5.488;2022-10-23T04:31:39;17.70;94.70
25440;DHT22;13365;52.208;5.488;2022-10-23T04:34:04;17.90;94.70
25440;DHT22;13365;52.208;5.488;2022-10-23T04:36:30;17.80;94.70
25440;DHT22;13365;52.208;5.488;2022-10-23T04:38:55;17.80;94.70
25440;DHT22;13365;52.208;5.488;2022-10-23T04:41:21;17.90;94.80
25440;DHT22;13365;52.208;5.488;2022-10-23T04:43:46;17.90;94.70
25440;DHT22;13365;52.208;5.488;2022-10-23T04:46:12;17.90;94.80
25440;DHT22;13365;52.208;5.488;2022-10-23T04:48:37;17.90;94.70
25440;DHT22;13365;52.208;5.488;2022-10-23T04:51:04;17.90;94.80
25440;DHT22;13365;52.208;5.488;2022-10-23T04:53:30;17.90;95.00
25440;DHT22;13365;52.208;5.488;2022-10-23T04:55:57;17.90;95.00
25440;DHT22;13365;52.208;5.488;2022-10-23T04:58:24;18.00;94.90
25440;DHT22;13365;52.208;5.488;2022-10-23T05:00:50;18.10;94.90
25440;DHT22;13365;52.208;5.488;2022-10-23T05:03:16;18.20;94.70
25440;DHT22;13365;52.208;5.488;2022-10-23T05:05:42;18.20;94.80
25440;DHT22;13365;52.208;5.488;2022-10-23T05:08:08;18.20;94.70
25440;DHT22;13365;52.208;5.488;2022-10-23T05:10:34;18.30;94.80
25440;DHT22;13365;52.208;5.488;2022-10-23T05:13:00;18.20;94.90
25440;DHT22;13365;52.208;5.488;2022-10-23T05:15:26;18.20;94.90
25440;DHT22;13365;52.208;5.488;2022-10-23T05:17:54;18.30;94.80
25440;DHT22;13365;52.208;5.488;2022-10-23T05:20:25;18.30;94.80
25440;DHT22;13365;52.208;5.488;2022-10-23T05:22:52;18.30;94.80
25440;DHT22;13365;52.208;5.488;2022-10-23T05:25:19;18.30;94.80
25440;DHT22;13365;52.208;5.488;2022-10-23T05:27:45;18.40;94.70
25440;DHT22;13365;52.208;5.488;2022-10-23T05:30:11;18.40;94.70
25440;DHT22;13365;52.208;5.488;2022-10-23T05:32:37;18.40;94.80
25440;DHT22;13365;52.208;5.488;2022-10-23T05:35:10;18.50;94.70
25440;DHT22;13365;52.208;5.488;2022-10-23T05:37:38;18.50;94.80
25440;DHT22;13365;52.208;5.488;2022-10-23T05:40:04;18.60;94.70
25440;DHT22;13365;52.208;5.488;2022-10-23T05:42:30;18.50;94.80
25440;DHT22;13365;52.208;5.488;2022-10-23T05:44:56;18.50;94.80
25440;DHT22;13365;52.208;5.488;2022-10-23T05:47:21;18.60;94.90
25440;DHT22;13365;52.208;5.488;2022-10-23T05:49:47;18.60;94.90
25440;DHT22;13365;52.208;5.488;2022-10-23T05:52:12;18.60;95.10
25440;DHT22;13365;52.208;5.488;2022-10-23T05:54:38;18.70;95.10
25440;DHT22;13365;52.208;5.488;2022-10-23T05:57:03;18.70;95.10
25440;DHT22;13365;52.208;5.488;2022-10-23T05:59:29;18.80;95.10
25440;DHT22;13365;52.208;5.488;2022-10-23T06:01:54;18.80;95.10
25440;DHT22;13365;52.208;5.488;2022-10-23T06:04:20;18.80;95.00
25440;DHT22;13365;52.208;5.488;2022-10-23T06:06:46;18.70;95.20
25440;DHT22;13365;52.208;5.488;2022-10-23T06:09:12;18.60;95.40
25440;DHT22;13365;52.208;5.488;2022-10-23T06:11:38;18.60;95.50
25440;DHT22;13365;52.208;5.488;2022-10-23T06:14:04;18.60;95.60
25440;DHT22;13365;52.208;5.488;2022-10-23T06:16:31;18.70;95.60
25440;DHT22;13365;52.208;5.488;2022-10-23T06:18:56;18.80;95.40
25440;DHT22;13365;52.208;5.488;2022-10-23T06:21:22;18.90;95.30
25440;DHT22;13365;52.208;5.488;2022-10-23T06:23:48;19.00;95.20
25440;DHT22;13365;52.208;5.488;2022-10-23T06:26:15;19.00;95.10
25440;DHT22;13365;52.208;5.488;2022-10-23T06:28:41;19.10;95.20
25440;DHT22;13365;52.208;5.488;2022-10-23T06:31:09;19.00;95.20
25440;DHT22;13365;52.208;5.488;2022-10-23T06:33:35;19.00;95.20
25440;DHT22;13365;52.208;5.488;2022-10-23T06:36:02;19.20;95.10
25440;DHT22;13365;52.208;5.488;2022-10-23T06:38:30;19.10;95.00
25440;DHT22;13365;52.208;5.488;2022-10-23T06:41:01;19.10;95.20
25440;DHT22;13365;52.208;5.488;2022-10-23T06:43:27;19.20;95.20
25440;DHT22;13365;52.208;5.488;2022-10-23T06:45:52;19.10;95.40
25440;DHT22;13365;52.208;5.488;2022-10-23T06:48:18;19.20;95.30
25440;DHT22;13365;52.208;5.488;2022-10-23T06:50:43;19.20;95.20
25440;DHT22;13365;52.208;5.488;2022-10-23T06:53:09;19.20;95.30
25440;DHT22;13365;52.208;5.488;2022-10-23T06:55:37;19.30;95.30
25440;DHT22;13365;52.208;5.488;2022-10-23T06:58:04;19.20;95.20
25440;DHT22;13365;52.208;5.488;2022-10-23T07:00:37;19.30;95.40
25440;DHT22;13365;52.208;5.488;2022-10-23T07:03:03;19.40;95.30
25440;DHT22;13365;52.208;5.488;2022-10-23T07:05:29;19.30;95.30
25440;DHT22;13365;52.208;5.488;2022-10-23T07:07:54;19.30;95.40
25440;DHT22;13365;52.208;5.488;2022-10-23T07:10:20;19.10;95.60
25440;DHT22;13365;52.208;5.488;2022-10-23T07:12:46;19.20;95.80
25440;DHT22;13365;52.208;5.488;2022-10-23T07:15:13;19.30;95.70
25440;DHT22;13365;52.208;5.488;2022-10-23T07:17:39;19.40;95.70
25440;DHT22;13365;52.208;5.488;2022-10-23T07:20:05;19.40;95.60
25440;DHT22;13365;52.208;5.488;2022-10-23T07:22:30;19.50;95.60
25440;DHT22;13365;52.208;5.488;2022-10-23T07:24:56;19.50;95.40
25440;DHT22;13365;52.208;5.488;2022-10-23T07:27:22;19.60;95.50
25440;DHT22;13365;52.208;5.488;2022-10-23T07:29:51;19.70;95.50
25440;DHT22;13365;52.208;5.488;2022-10-23T07:32:17;19.70;95.40
25440;DHT22;13365;52.208;5.488;2022-10-23T07:34:43;19.80;95.30
25440;DHT22;13365;52.208;5.488;2022-10-23T07:37:09;19.70;95.40
25440;DHT22;13365;52.208;5.488;2022-10-23T07:39:34;19.80;95.40
25440;DHT22;13365;52.208;5.488;2022-10-23T07:42:00;19.90;95.40
25440;DHT22;13365;52.208;5.488;2022-10-23T07:44:25;20.00;95.10
25440;DHT22;13365;52.208;5.488;2022-10-23T07:46:51;19.90;95.20
25440;DHT22;13365;52.208;5.488;2022-10-23T07:49:16;19.90;95.30
25440;DHT22;13365;52.208;5.488;2022-10-23T07:52:05;19.90;95.40
25440;DHT22;13365;52.208;5.488;2022-10-23T07:54:31;19.90;95.50
25440;DHT22;13365;52.208;5.488;2022-10-23T07:56:58;20.00;95.50
25440;DHT22;13365;52.208;5.488;2022-10-23T07:59:23;20.00;95.30
25440;DHT22;13365;52.208;5.488;2022-10-23T08:01:49;20.10;95.30
25440;DHT22;13365;52.208;5.488;2022-10-23T08:04:14;20.20;95.30
25440;DHT22;13365;52.208;5.488;2022-10-23T08:06:40;20.30;95.20
25440;DHT22;13365;52.208;5.488;2022-10-23T08:09:08;20.40;95.10
25440;DHT22;13365;52.208;5.488;2022-10-23T08:11:36;20.50;94.90
25440;DHT22;13365;52.208;5.488;2022-10-23T08:14:03;20.50;94.90
25440;DHT22;13365;52.208;5.488;2022-10-23T08:16:32;20.50;94.90
25440;DHT22;13365;52.208;5.488;2022-10-23T08:18:59;20.60;95.00
25440;DHT22;13365;52.208;5.488;2022-10-23T08:21:25;20.60;94.90
25440;DHT22;13365;52.208;5.488;2022-10-23T08:23:57;20.60;94.80
25440;DHT22;13365;52.208;5.488;2022-10-23T08:26:23;20.50;95.00
25440;DHT22;13365;52.208;5.488;2022-10-23T08:28:50;20.60;94.90
25440;DHT22;13365;52.208;5.488;2022-10-23T08:31:17;20.60;94.90
25440;DHT22;13365;52.208;5.488;2022-10-23T08:33:47;20.60;95.00
25440;DHT22;13365;52.208;5.488;2022-10-23T08:36:16;20.70;94.80
25440;DHT22;13365;52.208;5.488;2022-10-23T08:38:42;20.70;94.60
25440;DHT22;13365;52.208;5.488;2022-10-23T08:41:22;20.60;94.70
25440;DHT22;13365;52.208;5.488;2022-10-23T08:43:53;20.70;94.70
25440;DHT22;13365;52.208;5.488;2022-10-23T08:46:24;20.70;94.80
25440;DHT22;13365;52.208;5.488;2022-10-23T08:48:55;20.80;94.60
25440;DHT22;13365;52.208;5.488;2022-10-23T08:51:33;20.90;94.60
25440;DHT22;13365;52.208;5.488;2022-10-23T08:54:19;20.90;94.70
25440;DHT22;13365;52.208;5.488;2022-10-23T08:57:15;20.90;94.60
25440;DHT22;13365;52.208;5.488;2022-10-23T08:59:45;20.80;94.60
25440;DHT22;13365;52.208;5.488;2022-10-23T09:02:21;20.80;94.70
25440;DHT22;13365;52.208;5.488;2022-10-23T09:04:50;20.70;94.80
25440;DHT22;13365;52.208;5.488;2022-10-23T09:07:27;20.70;94.90
25440;DHT22;13365;52.208;5.488;2022-10-23T09:12:31;20.70;94.90
25440;DHT22;13365;52.208;5.488;2022-10-23T09:15:13;20.80;94.90
25440;DHT22;13365;52.208;5.488;2022-10-23T09:17:45;20.80;95.10
25440;DHT22;13365;52.208;5.488;2022-10-23T09:20:33;21.00;94.90
25440;DHT22;13365;52.208;5.488;2022-10-23T09:23:25;21.00;95.20
25440;DHT22;13365;52.208;5.488;2022-10-23T09:25:51;21.10;94.60
25440;DHT22;13365;52.208;5.488;2022-10-23T09:28:22;21.10;94.60
25440;DHT22;13365;52.208;5.488;2022-10-23T09:30:48;21.20;94.80
25440;DHT22;13365;52.208;5.488;2022-10-23T09:33:18;21.40;94.70
25440;DHT22;13365;52.208;5.488;2022-10-23T09:36:04;21.50;94.30
25440;DHT22;13365;52.208;5.488;2022-10-23T09:38:50;21.60;94.10
25440;DHT22;13365;52.208;5.488;2022-10-23T09:41:37;21.50;94.20
25440;DHT22;13365;52.208;5.488;2022-10-23T09:44:22;21.70;94.10
25440;DHT22;13365;52.208;5.488;2022-10-23T09:46:51;21.90;93.40
25440;DHT22;13365;52.208;5.488;2022-10-23T09:49:29;21.80;93.30
25440;DHT22;13365;52.208;5.488;2022-10-23T09:54:44;21.80;93.40
25440;DHT22;13365;52.208;5.488;2022-10-23T09:57:40;21.70;93.30
25440;DHT22;13365;52.208;5.488;2022-10-23T10:02:39;21.70;93.40
25440;DHT22;13365;52.208;5.488;2022-10-23T10:05:23;21.70;93.60
25440;DHT22;13365;52.208;5.488;2022-10-23T10:10:49;21.70;93.70
25440;DHT22;13365;52.208;5.488;2022-10-23T10:21:23;21.80;93.30
25440;DHT22;13365;52.208;5.488;2022-10-23T10:24:05;21.90;93.60
25440;DHT22;13365;52.208;5.488;2022-10-23T10:26:51;21.90;93.40
25440;DHT22;13365;52.208;5.488;2022-10-23T10:29:36;21.80;93.50
25440;DHT22;13365;52.208;5.488;2022-10-23T10:45:18;22.00;93.60
25440;DHT22;13365;52.208;5.488;2022-10-23T10:48:22;22.20;93.30
25440;DHT22;13365;52.208;5.488;2022-10-23T10:50:55;22.30;93.10
25440;DHT22;13365;52.208;5.488;2022-10-23T10:53:46;22.20;93.00
25440;DHT22;13365;52.208;5.488;2022-10-23T10:56:15;22.30;93.20
25440;DHT22;13365;52.208;5.488;2022-10-23T10:58:50;22.20;92.90
25440;DHT22;13365;52.208;5.488;2022-10-23T11:02:17;22.30;92.90
25440;DHT22;13365;52.208;5.488;2022-10-23T11:07:06;22.10;93.00
25440;DHT22;13365;52.208;5.488;2022-10-23T11:09:32;22.20;92.80
25440;DHT22;13365;52.208;5.488;2022-10-23T11:11:58;22.10;92.80
25440;DHT22;13365;52.208;5.488;2022-10-23T11:14:29;22.20;93.00
25440;DHT22;13365;52.208;5.488;2022-10-23T11:17:36;22.20;93.00
25440;DHT22;13365;52.208;5.488;2022-10-23T11:20:09;22.20;92.50
25440;DHT22;13365;52.208;5.488;2022-10-23T11:31:34;22.40;92.50
25440;DHT22;13365;52.208;5.488;2022-10-23T11:36:53;22.50;92.20
25440;DHT22;13365;52.208;5.488;2022-10-23T11:39:25;22.50;92.30
25440;DHT22;13365;52.208;5.488;2022-10-23T11:41:55;22.60;92.50
25440;DHT22;13365;52.208;5.488;2022-10-23T11:47:01;22.60;92.70
25440;DHT22;13365;52.208;5.488;2022-10-23T11:49:27;22.70;92.80
25440;DHT22;13365;52.208;5.488;2022-10-23T11:52:01;22.90;92.80
25440;DHT22;13365;52.208;5.488;2022-10-23T11:54:26;22.90;92.70
25440;DHT22;13365;52.208;5.488;2022-10-23T11:57:10;23.10;92.60
25440;DHT22;13365;52.208;5.488;2022-10-23T11:59:54;23.20;92.10
25440;DHT22;13365;52.208;5.488;2022-10-23T12:02:37;23.00;92.40
25440;DHT22;13365;52.208;5.488;2022-10-23T12:05:21;23.20;92.50
25440;DHT22;13365;52.208;5.488;2022-10-23T12:07:53;23.30;92.20
25440;DHT22;13365;52.208;5.488;2022-10-23T12:10:26;23.40;91.60
25440;DHT22;13365;52.208;5.488;2022-10-23T12:13:03;23.30;91.90
25440;DHT22;13365;52.208;5.488;2022-10-23T12:15:30;23.30;92.00
25440;DHT22;13365;52.208;5.488;2022-10-23T12:18:16;23.50;91.90
25440;DHT22;13365;52.208;5.488;2022-10-23T12:20:56;23.60;91.50
25440;DHT22;13365;52.208;5.488;2022-10-23T12:28:57;23.60;91.30
25440;DHT22;13365;52.208;5.488;2022-10-23T12:39:34;23.70;91.30
25440;DHT22;13365;52.208;5.488;2022-10-23T12:42:10;23.80;91.40
25440;DHT22;13365;52.208;5.488;2022-10-23T12:44:39;24.00;91.10
25440;DHT22;13365;52.208;5.488;2022-10-23T12:47:04;24.00;90.80
25440;DHT22;13365;52.208;5.488;2022-10-23T12:49:31;23.90;90.60
25440;DHT22;13365;52.208;5.488;2022-10-23T12:54:30;23.80;90.90
25440;DHT22;13365;52.208;5.488;2022-10-23T12:56:56;23.90;90.90
25440;DHT22;13365;52.208;5.488;2022-10-23T12:59:29;23.80;91.00
25440;DHT22;13365;52.208;5.488;2022-10-23T13:01:57;23.70;90.80
25440;DHT22;13365;52.208;5.488;2022-10-23T13:04:30;23.70;91.00
25440;DHT22;13365;52.208;5.488;2022-10-23T13:07:02;23.60;90.80
25440;DHT22;13365;52.208;5.488;2022-10-23T13:09:32;23.60;91.30
25440;DHT22;13365;52.208;5.488;2022-10-23T13:12:01;23.60;91.10
25440;DHT22;13365;52.208;5.488;2022-10-23T13:14:41;23.60;91.10
25440;DHT22;13365;52.208;5.488;2022-10-23T13:17:09;23.70;91.30
25440;DHT22;13365;52.208;5.488;2022-10-23T13:19:35;23.60;91.10
25440;DHT22;13365;52.208;5.488;2022-10-23T13:22:18;23.80;91.30
25440;DHT22;13365;52.208;5.488;2022-10-23T13:24:45;23.80;90.70
25440;DHT22;13365;52.208;5.488;2022-10-23T13:27:29;23.80;91.20
25440;DHT22;13365;52.208;5.488;2022-10-23T13:29:55;23.80;90.70
25440;DHT22;13365;52.208;5.488;2022-10-23T13:32:23;23.90;90.70
25440;DHT22;13365;52.208;5.488;2022-10-23T13:34:50;23.70;90.80
25440;DHT22;13365;52.208;5.488;2022-10-23T13:37:24;23.70;90.90
25440;DHT22;13365;52.208;5.488;2022-10-23T13:40:02;23.70;91.20
25440;DHT22;13365;52.208;5.488;2022-10-23T13:42:28;23.70;91.00
25440;DHT22;13365;52.208;5.488;2022-10-23T13:44:53;23.80;90.80
25440;DHT22;13365;52.208;5.488;2022-10-23T13:47:19;23.80;90.70
25440;DHT22;13365;52.208;5.488;2022-10-23T13:49:45;23.80;90.90
25440;DHT22;13365;52.208;5.488;2022-10-23T13:52:12;23.90;90.90
25440;DHT22;13365;52.208;5.488;2022-10-23T13:54:39;24.00;90.60
25440;DHT22;13365;52.208;5.488;2022-10-23T13:57:05;23.70;90.60
25440;DHT22;13365;52.208;5.488;2022-10-23T13:59:34;23.70;91.00
25440;DHT22;13365;52.208;5.488;2022-10-23T14:01:59;23.80;90.70
25440;DHT22;13365;52.208;5.488;2022-10-23T14:04:25;23.90;90.80
25440;DHT22;13365;52.208;5.488;2022-10-23T14:06:50;23.90;90.70
25440;DHT22;13365;52.208;5.488;2022-10-23T14:09:22;23.90;90.50
25440;DHT22;13365;52.208;5.488;2022-10-23T14:11:48;23.80;90.90
25440;DHT22;13365;52.208;5.488;2022-10-23T14:14:13;24.00;90.80
25440;DHT22;13365;52.208;5.488;2022-10-23T14:16:39;23.90;90.50
25440;DHT22;13365;52.208;5.488;2022-10-23T14:19:04;23.90;90.70
25440;DHT22;13365;52.208;5.488;2022-10-23T14:21:30;23.90;90.60
25440;DHT22;13365;52.208;5.488;2022-10-23T14:23:56;23.90;90.60
25440;DHT22;13365;52.208;5.488;2022-10-23T14:26:24;23.80;90.80
25440;DHT22;13365;52.208;5.488;2022-10-23T14:28:53;23.80;90.70
25440;DHT22;13365;52.208;5.488;2022-10-23T14:31:19;23.60;90.50
25440;DHT22;13365;52.208;5.488;2022-10-23T14:33:50;23.60;90.80
25440;DHT22;13365;52.208;5.488;2022-10-23T14:36:16;23.50;91.10
25440;DHT22;13365;52.208;5.488;2022-10-23T14:38:41;23.50;91.40
25440;DHT22;13365;52.208;5.488;2022-10-23T14:41:11;23.70;91.40
25440;DHT22;13365;52.208;5.488;2022-10-23T14:43:38;23.90;90.90
25440;DHT22;13365;52.208;5.488;2022-10-23T14:46:23;23.80;90.80
25440;DHT22;13365;52.208;5.488;2022-10-23T14:48:48;23.50;91.10
25440;DHT22;13365;52.208;5.488;2022-10-23T14:51:25;23.60;91.00
25440;DHT22;13365;52.208;5.488;2022-10-23T14:54:03;23.50;90.90
25440;DHT22;13365;52.208;5.488;2022-10-23T14:56:34;23.40;91.00
25440;DHT22;13365;52.208;5.488;2022-10-23T14:59:00;23.20;91.20
25440;DHT22;13365;52.208;5.488;2022-10-23T15:01:29;23.20;91.70
25440;DHT22;13365;52.208;5.488;2022-10-23T15:03:55;23.30;91.50
25440;DHT22;13365;52.208;5.488;2022-10-23T15:06:21;23.40;91.50
25440;DHT22;13365;52.208;5.488;2022-10-23T15:08:51;23.50;91.50
25440;DHT22;13365;52.208;5.488;2022-10-23T15:11:21;23.40;91.40
25440;DHT22;13365;52.208;5.488;2022-10-23T15:13:47;23.40;91.30
25440;DHT22;13365;52.208;5.488;2022-10-23T15:16:12;23.40;91.40
25440;DHT22;13365;52.208;5.488;2022-10-23T15:18:38;23.40;91.70
25440;DHT22;13365;52.208;5.488;2022-10-23T15:21:05;23.20;91.40
25440;DHT22;13365;52.208;5.488;2022-10-23T15:23:35;22.90;91.70
25440;DHT22;13365;52.208;5.488;2022-10-23T15:26:03;22.70;92.10
25440;DHT22;13365;52.208;5.488;2022-10-23T15:28:29;22.80;92.10
25440;DHT22;13365;52.208;5.488;2022-10-23T15:30:55;22.80;92.10
25440;DHT22;13365;52.208;5.488;2022-10-23T15:33:22;22.80;92.10
25440;DHT22;13365;52.208;5.488;2022-10-23T15:35:48;22.70;92.00
25440;DHT22;13365;52.208;5.488;2022-10-23T15:38:14;22.70;92.40
25440;DHT22;13365;52.208;5.488;2022-10-23T15:40:40;22.70;92.20
25440;DHT22;13365;52.208;5.488;2022-10-23T15:43:06;22.80;92.20
25440;DHT22;13365;52.208;5.488;2022-10-23T15:45:35;22.80;92.10
25440;DHT22;13365;52.208;5.488;2022-10-23T15:48:00;22.80;92.10
25440;DHT22;13365;52.208;5.488;2022-10-23T15:50:26;22.70;92.20
25440;DHT22;13365;52.208;5.488;2022-10-23T15:52:52;22.70;92.20
25440;DHT22;13365;52.208;5.488;2022-10-23T15:55:18;22.70;92.20
25440;DHT22;13365;52.208;5.488;2022-10-23T15:57:47;22.70;92.40
25440;DHT22;13365;52.208;5.488;2022-10-23T16:00:13;22.80;92.30
25440;DHT22;13365;52.208;5.488;2022-10-23T16:02:39;22.80;92.30
25440;DHT22;13365;52.208;5.488;2022-10-23T16:05:05;22.70;92.30
25440;DHT22;13365;52.208;5.488;2022-10-23T16:07:30;22.60;92.40
25440;DHT22;13365;52.208;5.488;2022-10-23T16:09:56;22.60;92.60
25440;DHT22;13365;52.208;5.488;2022-10-23T16:12:25;22.60;92.40
25440;DHT22;13365;52.208;5.488;2022-10-23T16:14:50;22.70;92.40
25440;DHT22;13365;52.208;5.488;2022-10-23T16:17:16;22.70;92.40
25440;DHT22;13365;52.208;5.488;2022-10-23T16:19:44;22.60;92.40
25440;DHT22;13365;52.208;5.488;2022-10-23T16:22:12;22.60;92.50
25440;DHT22;13365;52.208;5.488;2022-10-23T16:24:40;22.70;92.40
25440;DHT22;13365;52.208;5.488;2022-10-23T16:27:06;22.50;92.50
25440;DHT22;13365;52.208;5.488;2022-10-23T16:29:31;22.40;92.80
25440;DHT22;13365;52.208;5.488;2022-10-23T16:31:57;22.40;92.90
25440;DHT22;13365;52.208;5.488;2022-10-23T16:34:24;22.50;92.80
25440;DHT22;13365;52.208;5.488;2022-10-23T16:36:50;22.50;92.60
25440;DHT22;13365;52.208;5.488;2022-10-23T16:39:17;22.70;92.50
25440;DHT22;13365;52.208;5.488;2022-10-23T16:41:43;22.60;92.60
25440;DHT22;13365;52.208;5.488;2022-10-23T16:44:09;22.60;92.50
25440;DHT22;13365;52.208;5.488;2022-10-23T16:46:35;22.50;92.60
25440;DHT22;13365;52.208;5.488;2022-10-23T16:49:01;22.40;92.70
25440;DHT22;13365;52.208;5.488;2022-10-23T16:51:29;22.60;92.60
25440;DHT22;13365;52.208;5.488;2022-10-23T16:53:56;22.80;92.40
25440;DHT22;13365;52.208;5.488;2022-10-23T16:56:25;22.80;92.20
25440;DHT22;13365;52.208;5.488;2022-10-23T16:58:53;22.80;92.20
25440;DHT22;13365;52.208;5.488;2022-10-23T17:01:21;22.90;92.00
25440;DHT22;13365;52.208;5.488;2022-10-23T17:03:48;22.70;92.20
25440;DHT22;13365;52.208;5.488;2022-10-23T17:06:23;22.70;92.20
25440;DHT22;13365;52.208;5.488;2022-10-23T17:08:50;22.60;92.40